sensor_id;sensor_type;location;lat;lon;timestamp;temperature;humidity
9949;DHT22;5013;51.840;8.276;2023-06-01T00:00:17;14.20;1.00
9949;DHT22;5013;51.840;8.276;2023-06-01T00:02:43;14.20;72.40
9949;DHT22;5013;51.840;8.276;2023-06-01T00:05:09;14.10;3.30
9949;DHT22;5013;51.840;8.276;2023-06-01T00:07:34;14.10;1.00
9949;DHT22;5013;51.840;8.276;2023-06-01T00:10:00;14.10;99.90
9949;DHT22;5013;51.840;8.276;2023-06-01T00:12:26;14.10;1.00
9949;DHT22;5013;51.840;8.276;2023-06-01T00:14:53;14.00;37.70
9949;DHT22;5013;51.840;8.276;2023-06-01T00:17:18;14.00;1.00
9949;DHT22;5013;51.840;8.276;2023-06-01T00:19:45;13.90;99.90
9949;DHT22;5013;51.840;8.276;2023-06-01T00:22:11;13.90;9.60
9949;DHT22;5013;51.840;8.276;2023-06-01T00:24:37;13.80;99.90
9949;DHT22;5013;51.840;8.276;2023-06-01T00:27:03;13.80;99.90
9949;DHT22;5013;51.840;8.276;2023-06-01T00:29:30;13.80;99.90
9949;DHT22;5013;51.840;8.276;2023-06-01T00:31:55;13.80;99.90
9949;DHT22;5013;51.840;8.276;2023-06-01T00:34:21;13.60;99.90
9949;DHT22;5013;51.840;8.276;2023-06-01T00:36:46;13.60;99.90
9949;DHT22;5013;51.840;8.276;2023-06-01T00:39:12;13.60;99.90
9949;DHT22;5013;51.840;8.276;2023-06-01T00:41:37;13.40;99.90
9949;DHT22;5013;51.840;8.276;2023-06-01T00:44:03;13.30;1.00
9949;DHT22;5013;51.840;8.276;2023-06-01T00:46:30;13.20;1.00
9949;DHT22;5013;51.840;8.276;2023-06-01T00:48:56;13.20;1.00
9949;DHT22;5013;51.840;8.276;2023-06-01T00:51:23;13.20;1.00
9949;DHT22;5013;51.840;8.276;2023-06-01T00:53:49;13.10;1.00
9949;DHT22;5013;51.840;8.276;2023-06-01T00:56:15;13.00;1.00
9949;DHT22;5013;51.840;8.276;2023-06-01T00:58:42;12.90;1.00
9949;DHT22;5013;51.840;8.276;2023-06-01T01:01:08;12.90;75.30
9949;DHT22;5013;51.840;8.276;2023-06-01T01:03:48;12.70;99.90
9949;DHT22;5013;51.840;8.276;2023-06-01T01:09:20;12.60;99.90
9949;DHT22;5013;51.840;8.276;2023-06-01T01:12:00;12.50;1.00
9949;DHT22;5013;51.840;8.276;2023-06-01T01:14:39;12.50;1.00
9949;DHT22;5013;51.840;8.276;2023-06-01T01:17:15;12.40;1.00
9949;DHT22;5013;51.840;8.276;2023-06-01T01:20:01;12.40;1.00
9949;DHT22;5013;51.840;8.276;2023-06-01T01:25:48;12.30;1.00
9949;DHT22;5013;51.840;8.276;2023-06-01T01:30:37;12.00;99.90
9949;DHT22;5013;51.840;8.276;2023-06-01T01:33:04;11.90;99.90
9949;DHT22;5013;51.840;8.276;2023-06-01T01:35:32;11.90;99.90
9949;DHT22;5013;51.840;8.276;2023-06-01T01:37:58;11.80;1.00
9949;DHT22;5013;51.840;8.276;2023-06-01T01:40:24;11.80;1.00
9949;DHT22;5013;51.840;8.276;2023-06-01T01:42:50;11.70;99.90
9949;DHT22;5013;51.840;8.276;2023-06-01T01:45:17;11.70;99.90
9949;DHT22;5013;51.840;8.276;2023-06-01T01:50:12;11.60;1.00
9949;DHT22;5013;51.840;8.276;2023-06-01T01:52:39;11.50;99.90
9949;DHT22;5013;51.840;8.276;2023-06-01T01:55:10;11.50;99.90
9949;DHT22;5013;51.840;8.276;2023-06-01T01:57:36;11.50;99.90
9949;DHT22;5013;51.840;8.276;2023-06-01T02:00:04;11.50;94.10
9949;DHT22;5013;51.840;8.276;2023-06-01T02:02:31;11.50;99.90
9949;DHT22;5013;51.840;8.276;2023-06-01T02:04:57;11.50;99.90
9949;DHT22;5013;51.840;8.276;2023-06-01T02:07:22;11.50;99.90
9949;DHT22;5013;51.840;8.276;2023-06-01T02:09:48;11.50;1.00
9949;DHT22;5013;51.840;8.276;2023-06-01T02:12:14;11.40;1.00
9949;DHT22;5013;51.840;8.276;2023-06-01T02:14:40;11.40;24.00
9949;DHT22;5013;51.840;8.276;2023-06-01T02:17:05;11.40;1.00
9949;DHT22;5013;51.840;8.276;2023-06-01T02:19:33;11.40;99.90
9949;DHT22;5013;51.840;8.276;2023-06-01T02:21:58;11.40;99.90
9949;DHT22;5013;51.840;8.276;2023-06-01T02:24:24;11.50;99.90
9949;DHT22;5013;51.840;8.276;2023-06-01T02:26:50;11.40;23.30
9949;DHT22;5013;51.840;8.276;2023-06-01T02:29:20;11.40;94.10
9949;DHT22;5013;51.840;8.276;2023-06-01T02:31:48;11.50;1.00
9949;DHT22;5013;51.840;8.276;2023-06-01T02:34:14;11.40;28.10
9949;DHT22;5013;51.840;8.276;2023-06-01T02:36:40;11.50;1.00
9949;DHT22;5013;51.840;8.276;2023-06-01T02:39:06;11.60;1.00
9949;DHT22;5013;51.840;8.276;2023-06-01T02:41:31;11.60;1.00
9949;DHT22;5013;51.840;8.276;2023-06-01T02:43:57;11.60;99.90
9949;DHT22;5013;51.840;8.276;2023-06-01T02:46:22;11.60;99.90
9949;DHT22;5013;51.840;8.276;2023-06-01T02:48:48;11.50;99.90
9949;DHT22;5013;51.840;8.276;2023-06-01T02:51:14;11.50;1.00
9949;DHT22;5013;51.840;8.276;2023-06-01T02:53:42;11.60;1.00
9949;DHT22;5013;51.840;8.276;2023-06-01T02:56:08;11.60;99.90
9949;DHT22;5013;51.840;8.276;2023-06-01T02:58:34;11.50;99.90
9949;DHT22;5013;51.840;8.276;2023-06-01T03:00:59;11.50;99.90
9949;DHT22;5013;51.840;8.276;2023-06-01T03:03:26;11.50;99.90
9949;DHT22;5013;51.840;8.276;2023-06-01T03:05:52;11.50;99.90
9949;DHT22;5013;51.840;8.276;2023-06-01T03:08:18;11.50;1.00
9949;DHT22;5013;51.840;8.276;2023-06-01T03:10:44;11.50;1.00
9949;DHT22;5013;51.840;8.276;2023-06-01T03:13:10;11.50;1.00
9949;DHT22;5013;51.840;8.276;2023-06-01T03:15:36;11.50;1.00
9949;DHT22;5013;51.840;8.276;2023-06-01T03:18:03;11.60;1.00
9949;DHT22;5013;51.840;8.276;2023-06-01T03:20:29;11.50;1.00
9949;DHT22;5013;51.840;8.276;2023-06-01T03:22:54;11.60;1.00
9949;DHT22;5013;51.840;8.276;2023-06-01T03:25:20;11.60;1.00
9949;DHT22;5013;51.840;8.276;2023-06-01T03:27:46;11.60;99.90
9949;DHT22;5013;51.840;8.276;2023-06-01T03:30:12;11.60;99.90
9949;DHT22;5013;51.840;8.276;2023-06-01T03:32:38;11.60;99.90
9949;DHT22;5013;51.840;8.276;2023-06-01T03:35:05;11.70;1.00
9949;DHT22;5013;51.840;8.276;2023-06-01T03:37:35;11.60;97.00
9949;DHT22;5013;51.840;8.276;2023-06-01T03:40:02;11.60;99.90
9949;DHT22;5013;51.840;8.276;2023-06-01T03:42:36;11.60;99.90
9949;DHT22;5013;51.840;8.276;2023-06-01T03:45:03;11.70;99.90
9949;DHT22;5013;51.840;8.276;2023-06-01T03:47:30;11.80;59.30
9949;DHT22;5013;51.840;8.276;2023-06-01T03:49:55;11.80;1.00
9949;DHT22;5013;51.840;8.276;2023-06-01T03:52:23;11.90;1.00
9949;DHT22;5013;51.840;8.276;2023-06-01T03:54:49;11.90;1.00
9949;DHT22;5013;51.840;8.276;2023-06-01T03:57:15;11.80;1.00
9949;DHT22;5013;51.840;8.276;2023-06-01T03:59:41;11.80;1.00
9949;DHT22;5013;51.840;8.276;2023-06-01T04:02:06;11.80;1.00
9949;DHT22;5013;51.840;8.276;2023-06-01T04:04:34;11.80;1.00
9949;DHT22;5013;51.840;8.276;2023-06-01T04:07:00;11.80;1.00
9949;DHT22;5013;51.840;8.276;2023-06-01T04:09:29;11.60;1.00
9949;DHT22;5013;51.840;8.276;2023-06-01T04:11:55;11.70;1.00
9949;DHT22;5013;51.840;8.276;2023-06-01T04:14:21;11.70;1.00
9949;DHT22;5013;51.840;8.276;2023-06-01T04:16:47;11.70;1.00
9949;DHT22;5013;51.840;8.276;2023-06-01T04:19:13;11.80;1.00
9949;DHT22;5013;51.840;8.276;2023-06-01T04:21:38;11.80;1.00
9949;DHT22;5013;51.840;8.276;2023-06-01T04:24:04;11.80;1.00
9949;DHT22;5013;51.840;8.276;2023-06-01T04:26:30;11.80;99.90
9949;DHT22;5013;51.840;8.276;2023-06-01T04:28:57;11.90;44.10
9949;DHT22;5013;51.840;8.276;2023-06-01T04:31:24;11.90;1.00
9949;DHT22;5013;51.840;8.276;2023-06-01T04:33:50;11.90;99.90
9949;DHT22;5013;51.840;8.276;2023-06-01T04:36:22;12.00;1.00
9949;DHT22;5013;51.840;8.276;2023-06-01T04:38:51;12.10;1.00
9949;DHT22;5013;51.840;8.276;2023-06-01T04:41:20;12.20;1.00
9949;DHT22;5013;51.840;8.276;2023-06-01T04:43:49;12.40;99.90
9949;DHT22;5013;51.840;8.276;2023-06-01T04:46:20;12.30;99.90
9949;DHT22;5013;51.840;8.276;2023-06-01T04:48:46;12.30;1.00
9949;DHT22;5013;51.840;8.276;2023-06-01T04:51:13;12.50;99.90
9949;DHT22;5013;51.840;8.276;2023-06-01T04:53:49;12.50;99.90
9949;DHT22;5013;51.840;8.276;2023-06-01T04:56:22;12.50;99.90
9949;DHT22;5013;51.840;8.276;2023-06-01T04:58:55;12.50;35.30
9949;DHT22;5013;51.840;8.276;2023-06-01T05:01:25;12.30;99.90
9949;DHT22;5013;51.840;8.276;2023-06-01T05:03:52;12.20;99.90
9949;DHT22;5013;51.840;8.276;2023-06-01T05:06:20;12.10;1.00
9949;DHT22;5013;51.840;8.276;2023-06-01T05:08:46;12.20;1.00
9949;DHT22;5013;51.840;8.276;2023-06-01T05:11:12;12.30;99.90
9949;DHT22;5013;51.840;8.276;2023-06-01T05:13:39;12.40;99.90
9949;DHT22;5013;51.840;8.276;2023-06-01T05:16:06;12.40;45.00
9949;DHT22;5013;51.840;8.276;2023-06-01T05:18:32;12.40;1.00
9949;DHT22;5013;51.840;8.276;2023-06-01T05:20:58;12.40;1.00
9949;DHT22;5013;51.840;8.276;2023-06-01T05:23:24;12.40;1.00
9949;DHT22;5013;51.840;8.276;2023-06-01T05:25:51;12.40;1.00
9949;DHT22;5013;51.840;8.276;2023-06-01T05:28:17;12.40;1.00
9949;DHT22;5013;51.840;8.276;2023-06-01T05:30:43;12.40;1.00
9949;DHT22;5013;51.840;8.276;2023-06-01T05:33:09;12.40;1.00
9949;DHT22;5013;51.840;8.276;2023-06-01T05:35:35;12.50;1.00
9949;DHT22;5013;51.840;8.276;2023-06-01T05:38:00;12.60;1.00
9949;DHT22;5013;51.840;8.276;2023-06-01T05:40:26;12.70;1.00
9949;DHT22;5013;51.840;8.276;2023-06-01T05:42:51;12.80;99.90
9949;DHT22;5013;51.840;8.276;2023-06-01T05:45:17;12.80;99.90
9949;DHT22;5013;51.840;8.276;2023-06-01T05:47:43;12.60;1.00
9949;DHT22;5013;51.840;8.276;2023-06-01T05:50:09;12.40;1.00
9949;DHT22;5013;51.840;8.276;2023-06-01T05:52:34;12.40;1.00
9949;DHT22;5013;51.840;8.276;2023-06-01T05:55:00;12.30;1.00
9949;DHT22;5013;51.840;8.276;2023-06-01T05:57:26;12.60;1.00
9949;DHT22;5013;51.840;8.276;2023-06-01T05:59:51;12.80;1.00
9949;DHT22;5013;51.840;8.276;2023-06-01T06:02:19;13.10;99.90
9949;DHT22;5013;51.840;8.276;2023-06-01T06:04:44;13.10;99.90
9949;DHT22;5013;51.840;8.276;2023-06-01T06:10:36;13.20;99.90
9949;DHT22;5013;51.840;8.276;2023-06-01T06:13:01;13.10;1.00
9949;DHT22;5013;51.840;8.276;2023-06-01T06:15:27;12.70;99.90
9949;DHT22;5013;51.840;8.276;2023-06-01T06:17:52;12.80;1.00
9949;DHT22;5013;51.840;8.276;2023-06-01T06:20:18;12.90;1.00
9949;DHT22;5013;51.840;8.276;2023-06-01T06:22:50;13.00;99.90
9949;DHT22;5013;51.840;8.276;2023-06-01T06:25:16;13.10;99.90
9949;DHT22;5013;51.840;8.276;2023-06-01T06:27:42;13.20;99.90
9949;DHT22;5013;51.840;8.276;2023-06-01T06:30:07;13.20;1.00
9949;DHT22;5013;51.840;8.276;2023-06-01T06:32:33;13.20;1.00
9949;DHT22;5013;51.840;8.276;2023-06-01T06:35:00;13.30;99.90
9949;DHT22;5013;51.840;8.276;2023-06-01T06:37:26;13.30;1.00
9949;DHT22;5013;51.840;8.276;2023-06-01T06:39:53;13.40;1.00
9949;DHT22;5013;51.840;8.276;2023-06-01T06:42:18;13.40;1.00
9949;DHT22;5013;51.840;8.276;2023-06-01T06:44:44;13.50;1.00
9949;DHT22;5013;51.840;8.276;2023-06-01T06:47:09;13.60;1.00
9949;DHT22;5013;51.840;8.276;2023-06-01T06:49:35;13.60;1.00
9949;DHT22;5013;51.840;8.276;2023-06-01T06:52:00;13.70;1.00
9949;DHT22;5013;51.840;8.276;2023-06-01T06:54:26;13.60;1.00
9949;DHT22;5013;51.840;8.276;2023-06-01T06:56:52;13.80;1.00
9949;DHT22;5013;51.840;8.276;2023-06-01T06:59:17;13.90;99.90
9949;DHT22;5013;51.840;8.276;2023-06-01T07:01:43;13.90;99.90
9949;DHT22;5013;51.840;8.276;2023-06-01T07:04:08;13.90;99.90
9949;DHT22;5013;51.840;8.276;2023-06-01T07:06:34;14.00;99.90
9949;DHT22;5013;51.840;8.276;2023-06-01T07:09:00;13.90;99.90
9949;DHT22;5013;51.840;8.276;2023-06-01T07:11:26;14.00;1.00
9949;DHT22;5013;51.840;8.276;2023-06-01T07:13:55;14.10;99.90
9949;DHT22;5013;51.840;8.276;2023-06-01T07:16:23;14.10;99.90
9949;DHT22;5013;51.840;8.276;2023-06-01T07:18:50;14.10;99.90
9949;DHT22;5013;51.840;8.276;2023-06-01T07:21:16;14.00;99.90
9949;DHT22;5013;51.840;8.276;2023-06-01T07:23:42;13.80;99.90
9949;DHT22;5013;51.840;8.276;2023-06-01T07:26:08;13.80;1.00
9949;DHT22;5013;51.840;8.276;2023-06-01T07:28:34;13.90;1.00
9949;DHT22;5013;51.840;8.276;2023-06-01T07:31:00;14.00;1.00
9949;DHT22;5013;51.840;8.276;2023-06-01T07:33:25;14.20;1.00
9949;DHT22;5013;51.840;8.276;2023-06-01T07:35:51;14.40;99.90
9949;DHT22;5013;51.840;8.276;2023-06-01T07:38:19;14.60;88.00
9949;DHT22;5013;51.840;8.276;2023-06-01T07:40:45;14.80;1.00
9949;DHT22;5013;51.840;8.276;2023-06-01T07:43:11;14.90;1.00
9949;DHT22;5013;51.840;8.276;2023-06-01T07:45:38;14.90;1.00
9949;DHT22;5013;51.840;8.276;2023-06-01T07:48:04;15.10;1.00
9949;DHT22;5013;51.840;8.276;2023-06-01T07:50:30;15.00;1.00
9949;DHT22;5013;51.840;8.276;2023-06-01T07:52:57;14.80;1.00
9949;DHT22;5013;51.840;8.276;2023-06-01T07:55:23;15.10;1.00
9949;DHT22;5013;51.840;8.276;2023-06-01T07:57:49;15.20;99.90
9949;DHT22;5013;51.840;8.276;2023-06-01T08:00:15;14.90;99.90
9949;DHT22;5013;51.840;8.276;2023-06-01T08:02:43;14.90;1.00
9949;DHT22;5013;51.840;8.276;2023-06-01T08:05:09;15.10;1.00
9949;DHT22;5013;51.840;8.276;2023-06-01T08:07:35;15.40;99.90
9949;DHT22;5013;51.840;8.276;2023-06-01T08:10:06;15.40;41.50
9949;DHT22;5013;51.840;8.276;2023-06-01T08:12:34;15.30;99.90
9949;DHT22;5013;51.840;8.276;2023-06-01T08:15:00;15.40;99.90
9949;DHT22;5013;51.840;8.276;2023-06-01T08:17:26;15.60;99.90
9949;DHT22;5013;51.840;8.276;2023-06-01T08:19:52;15.60;99.90
9949;DHT22;5013;51.840;8.276;2023-06-01T08:22:20;15.60;71.00
9949;DHT22;5013;51.840;8.276;2023-06-01T08:24:46;15.60;99.90
9949;DHT22;5013;51.840;8.276;2023-06-01T08:27:17;15.60;99.90
9949;DHT22;5013;51.840;8.276;2023-06-01T08:29:44;15.70;69.60
9949;DHT22;5013;51.840;8.276;2023-06-01T08:32:11;15.50;99.90
9949;DHT22;5013;51.840;8.276;2023-06-01T08:34:36;15.20;1.00
9949;DHT22;5013;51.840;8.276;2023-06-01T08:37:02;15.20;1.00
9949;DHT22;5013;51.840;8.276;2023-06-01T08:39:27;15.10;1.00
9949;DHT22;5013;51.840;8.276;2023-06-01T08:42:13;15.10;1.00
9949;DHT22;5013;51.840;8.276;2023-06-01T08:44:41;15.40;1.00
9949;DHT22;5013;51.840;8.276;2023-06-01T08:47:07;15.30;1.00
9949;DHT22;5013;51.840;8.276;2023-06-01T08:49:34;15.30;1.00
9949;DHT22;5013;51.840;8.276;2023-06-01T08:52:03;15.30;1.00
9949;DHT22;5013;51.840;8.276;2023-06-01T08:54:30;15.40;1.00
9949;DHT22;5013;51.840;8.276;2023-06-01T08:57:00;15.50;99.90
9949;DHT22;5013;51.840;8.276;2023-06-01T08:59:29;15.40;1.00
9949;DHT22;5013;51.840;8.276;2023-06-01T09:01:57;15.60;1.00
9949;DHT22;5013;51.840;8.276;2023-06-01T09:04:22;15.60;99.90
9949;DHT22;5013;51.840;8.276;2023-06-01T09:06:48;15.70;1.00
9949;DHT22;5013;51.840;8.276;2023-06-01T09:09:14;15.80;99.90
9949;DHT22;5013;51.840;8.276;2023-06-01T09:11:40;15.90;99.90
9949;DHT22;5013;51.840;8.276;2023-06-01T09:14:24;15.90;99.90
9949;DHT22;5013;51.840;8.276;2023-06-01T09:16:51;15.80;99.90
9949;DHT22;5013;51.840;8.276;2023-06-01T09:19:17;15.60;99.90
9949;DHT22;5013;51.840;8.276;2023-06-01T09:21:56;15.50;99.90
9949;DHT22;5013;51.840;8.276;2023-06-01T09:24:22;15.50;1.00
9949;DHT22;5013;51.840;8.276;2023-06-01T09:26:49;15.40;1.00
9949;DHT22;5013;51.840;8.276;2023-06-01T09:29:15;15.60;1.00
9949;DHT22;5013;51.840;8.276;2023-06-01T09:31:43;15.80;99.90
9949;DHT22;5013;51.840;8.276;2023-06-01T09:34:14;15.70;99.90
9949;DHT22;5013;51.840;8.276;2023-06-01T09:36:47;15.60;99.90
9949;DHT22;5013;51.840;8.276;2023-06-01T09:39:15;15.80;99.90
9949;DHT22;5013;51.840;8.276;2023-06-01T09:41:58;15.90;99.90
9949;DHT22;5013;51.840;8.276;2023-06-01T09:47:00;15.70;99.90
9949;DHT22;5013;51.840;8.276;2023-06-01T09:49:32;15.60;99.90
9949;DHT22;5013;51.840;8.276;2023-06-01T09:54:51;15.70;90.10
9949;DHT22;5013;51.840;8.276;2023-06-01T09:57:26;16.00;99.90
9949;DHT22;5013;51.840;8.276;2023-06-01T09:59:54;16.40;99.90
9949;DHT22;5013;51.840;8.276;2023-06-01T10:02:22;16.30;78.60
9949;DHT22;5013;51.840;8.276;2023-06-01T10:04:52;16.30;99.90
9949;DHT22;5013;51.840;8.276;2023-06-01T10:07:19;16.30;1.00
9949;DHT22;5013;51.840;8.276;2023-06-01T10:09:53;16.30;93.70
9949;DHT22;5013;51.840;8.276;2023-06-01T10:12:19;16.20;99.90
9949;DHT22;5013;51.840;8.276;2023-06-01T10:14:45;16.40;99.90
9949;DHT22;5013;51.840;8.276;2023-06-01T10:17:11;16.10;99.90
9949;DHT22;5013;51.840;8.276;2023-06-01T10:19:40;16.00;99.90
9949;DHT22;5013;51.840;8.276;2023-06-01T10:22:06;16.10;99.90
9949;DHT22;5013;51.840;8.276;2023-06-01T10:24:32;16.20;99.90
9949;DHT22;5013;51.840;8.276;2023-06-01T10:29:36;16.00;99.90
9949;DHT22;5013;51.840;8.276;2023-06-01T10:32:02;15.80;1.00
9949;DHT22;5013;51.840;8.276;2023-06-01T10:34:42;16.00;99.90
9949;DHT22;5013;51.840;8.276;2023-06-01T10:37:13;16.20;99.90
9949;DHT22;5013;51.840;8.276;2023-06-01T10:39:40;16.50;99.90
9949;DHT22;5013;51.840;8.276;2023-06-01T10:57:41;16.40;99.90
9949;DHT22;5013;51.840;8.276;2023-06-01T11:02:47;16.50;99.90
9949;DHT22;5013;51.840;8.276;2023-06-01T11:08:05;16.60;99.90
9949;DHT22;5013;51.840;8.276;2023-06-01T11:13:20;16.30;1.00
9949;DHT22;5013;51.840;8.276;2023-06-01T11:18:48;16.60;99.90
9949;DHT22;5013;51.840;8.276;2023-06-01T11:21:43;16.50;99.90
9949;DHT22;5013;51.840;8.276;2023-06-01T11:24:17;16.60;1.00
9949;DHT22;5013;51.840;8.276;2023-06-01T11:26:46;16.70;1.00
9949;DHT22;5013;51.840;8.276;2023-06-01T11:29:17;16.80;99.90
9949;DHT22;5013;51.840;8.276;2023-06-01T11:31:57;16.60;99.90
9949;DHT22;5013;51.840;8.276;2023-06-01T11:34:37;16.80;99.90
9949;DHT22;5013;51.840;8.276;2023-06-01T11:37:04;17.10;1.00
9949;DHT22;5013;51.840;8.276;2023-06-01T11:39:30;16.80;99.90
9949;DHT22;5013;51.840;8.276;2023-06-01T11:44:35;17.10;99.90
9949;DHT22;5013;51.840;8.276;2023-06-01T11:47:01;17.10;99.90
9949;DHT22;5013;51.840;8.276;2023-06-01T11:49:27;17.10;78.60
9949;DHT22;5013;51.840;8.276;2023-06-01T11:51:54;17.30;18.10
9949;DHT22;5013;51.840;8.276;2023-06-01T11:54:26;17.30;1.00
9949;DHT22;5013;51.840;8.276;2023-06-01T11:56:52;17.40;1.00
9949;DHT22;5013;51.840;8.276;2023-06-01T11:59:18;17.20;1.00
9949;DHT22;5013;51.840;8.276;2023-06-01T12:01:46;17.20;99.90
9949;DHT22;5013;51.840;8.276;2023-06-01T12:04:16;17.00;99.90
9949;DHT22;5013;51.840;8.276;2023-06-01T12:06:42;17.10;99.90
9949;DHT22;5013;51.840;8.276;2023-06-01T12:09:08;17.00;99.90
9949;DHT22;5013;51.840;8.276;2023-06-01T12:11:34;16.80;1.00
9949;DHT22;5013;51.840;8.276;2023-06-01T12:14:01;16.70;1.00
9949;DHT22;5013;51.840;8.276;2023-06-01T12:17:03;16.60;1.00
9949;DHT22;5013;51.840;8.276;2023-06-01T12:19:30;16.60;1.00
9949;DHT22;5013;51.840;8.276;2023-06-01T12:21:58;16.70;1.00
9949;DHT22;5013;51.840;8.276;2023-06-01T12:24:41;16.80;99.90
9949;DHT22;5013;51.840;8.276;2023-06-01T12:27:16;16.90;99.90
9949;DHT22;5013;51.840;8.276;2023-06-01T12:29:45;16.70;1.00
9949;DHT22;5013;51.840;8.276;2023-06-01T12:32:13;16.60;1.00
9949;DHT22;5013;51.840;8.276;2023-06-01T12:34:41;16.60;1.00
9949;DHT22;5013;51.840;8.276;2023-06-01T12:37:13;16.70;99.90
9949;DHT22;5013;51.840;8.276;2023-06-01T12:39:38;16.90;99.90
9949;DHT22;5013;51.840;8.276;2023-06-01T12:42:06;16.90;99.90
9949;DHT22;5013;51.840;8.276;2023-06-01T12:44:32;17.00;1.00
9949;DHT22;5013;51.840;8.276;2023-06-01T12:46:58;16.90;1.00
9949;DHT22;5013;51.840;8.276;2023-06-01T12:49:24;16.90;99.90
9949;DHT22;5013;51.840;8.276;2023-06-01T12:51:50;17.00;99.90
9949;DHT22;5013;51.840;8.276;2023-06-01T12:54:16;16.80;99.90
9949;DHT22;5013;51.840;8.276;2023-06-01T12:56:43;16.60;1.00
9949;DHT22;5013;51.840;8.276;2023-06-01T12:59:08;16.80;1.00
9949;DHT22;5013;51.840;8.276;2023-06-01T13:01:34;16.70;1.00
9949;DHT22;5013;51.840;8.276;2023-06-01T13:04:00;16.80;1.00
9949;DHT22;5013;51.840;8.276;2023-06-01T13:06:28;17.00;1.00
9949;DHT22;5013;51.840;8.276;2023-06-01T13:08:53;17.10;1.00
9949;DHT22;5013;51.840;8.276;2023-06-01T13:11:19;17.00;99.90
9949;DHT22;5013;51.840;8.276;2023-06-01T13:13:45;16.70;1.00
9949;DHT22;5013;51.840;8.276;2023-06-01T13:16:11;16.70;1.00
9949;DHT22;5013;51.840;8.276;2023-06-01T13:18:37;16.60;1.00
9949;DHT22;5013;51.840;8.276;2023-06-01T13:21:02;16.50;1.00
9949;DHT22;5013;51.840;8.276;2023-06-01T13:23:28;16.60;99.90
9949;DHT22;5013;51.840;8.276;2023-06-01T13:25:54;16.70;88.10
9949;DHT22;5013;51.840;8.276;2023-06-01T13:28:19;16.70;1.00
9949;DHT22;5013;51.840;8.276;2023-06-01T13:30:45;16.70;1.00
9949;DHT22;5013;51.840;8.276;2023-06-01T13:33:10;16.90;1.00
9949;DHT22;5013;51.840;8.276;2023-06-01T13:35:36;16.90;1.00
9949;DHT22;5013;51.840;8.276;2023-06-01T13:38:02;17.20;1.00
9949;DHT22;5013;51.840;8.276;2023-06-01T13:40:27;17.40;99.90
9949;DHT22;5013;51.840;8.276;2023-06-01T13:42:53;17.30;99.90
9949;DHT22;5013;51.840;8.276;2023-06-01T13:45:20;17.30;99.90
9949;DHT22;5013;51.840;8.276;2023-06-01T13:47:46;17.40;99.90
9949;DHT22;5013;51.840;8.276;2023-06-01T13:50:12;17.70;99.90
9949;DHT22;5013;51.840;8.276;2023-06-01T13:52:39;17.60;1.00
9949;DHT22;5013;51.840;8.276;2023-06-01T13:55:05;17.40;3.00
9949;DHT22;5013;51.840;8.276;2023-06-01T13:57:32;17.50;1.00
9949;DHT22;5013;51.840;8.276;2023-06-01T13:59:57;17.40;99.90
9949;DHT22;5013;51.840;8.276;2023-06-01T14:02:23;17.70;52.60
9949;DHT22;5013;51.840;8.276;2023-06-01T14:04:49;17.90;99.90
9949;DHT22;5013;51.840;8.276;2023-06-01T14:07:14;18.00;1.00
9949;DHT22;5013;51.840;8.276;2023-06-01T14:09:40;17.90;1.00
9949;DHT22;5013;51.840;8.276;2023-06-01T14:12:06;17.90;1.00
9949;DHT22;5013;51.840;8.276;2023-06-01T14:14:32;17.90;1.00
9949;DHT22;5013;51.840;8.276;2023-06-01T14:16:58;17.90;1.00
9949;DHT22;5013;51.840;8.276;2023-06-01T14:19:23;17.90;1.00
9949;DHT22;5013;51.840;8.276;2023-06-01T14:21:50;17.90;1.00
9949;DHT22;5013;51.840;8.276;2023-06-01T14:24:16;17.80;1.00
9949;DHT22;5013;51.840;8.276;2023-06-01T14:26:42;17.90;1.00
9949;DHT22;5013;51.840;8.276;2023-06-01T14:29:07;18.20;1.00
9949;DHT22;5013;51.840;8.276;2023-06-01T14:31:33;18.40;99.90
9949;DHT22;5013;51.840;8.276;2023-06-01T14:33:59;18.60;99.90
9949;DHT22;5013;51.840;8.276;2023-06-01T14:36:24;18.30;99.90
9949;DHT22;5013;51.840;8.276;2023-06-01T14:38:50;18.10;99.90
9949;DHT22;5013;51.840;8.276;2023-06-01T14:41:15;18.20;1.00
9949;DHT22;5013;51.840;8.276;2023-06-01T14:43:41;18.10;1.00
9949;DHT22;5013;51.840;8.276;2023-06-01T14:46:07;18.20;1.00
9949;DHT22;5013;51.840;8.276;2023-06-01T14:48:33;18.30;99.90
9949;DHT22;5013;51.840;8.276;2023-06-01T14:50:58;18.20;99.90
9949;DHT22;5013;51.840;8.276;2023-06-01T14:53:24;17.90;1.00
9949;DHT22;5013;51.840;8.276;2023-06-01T14:55:50;18.00;1.00
9949;DHT22;5013;51.840;8.276;2023-06-01T14:58:16;18.20;1.00
9949;DHT22;5013;51.840;8.276;2023-06-01T15:00:41;18.20;1.00
9949;DHT22;5013;51.840;8.276;2023-06-01T15:03:07;18.10;1.00
9949;DHT22;5013;51.840;8.276;2023-06-01T15:05:32;18.00;1.00
9949;DHT22;5013;51.840;8.276;2023-06-01T15:07:59;18.00;1.00
9949;DHT22;5013;51.840;8.276;2023-06-01T15:10:25;18.00;1.00
9949;DHT22;5013;51.840;8.276;2023-06-01T15:12:50;18.00;99.90
9949;DHT22;5013;51.840;8.276;2023-06-01T15:15:17;18.10;1.00
9949;DHT22;5013;51.840;8.276;2023-06-01T15:17:43;18.00;1.00
9949;DHT22;5013;51.840;8.276;2023-06-01T15:20:09;18.30;1.00
9949;DHT22;5013;51.840;8.276;2023-06-01T15:22:35;18.30;1.00
9949;DHT22;5013;51.840;8.276;2023-06-01T15:25:00;18.30;99.90
9949;DHT22;5013;51.840;8.276;2023-06-01T15:27:26;18.30;99.90
9949;DHT22;5013;51.840;8.276;2023-06-01T15:29:51;18.10;99.90
9949;DHT22;5013;51.840;8.276;2023-06-01T15:32:17;18.10;1.00
9949;DHT22;5013;51.840;8.276;2023-06-01T15:34:42;18.10;1.00
9949;DHT22;5013;51.840;8.276;2023-06-01T15:37:11;18.20;1.00
9949;DHT22;5013;51.840;8.276;2023-06-01T15:39:38;18.00;1.00
9949;DHT22;5013;51.840;8.276;2023-06-01T15:42:05;17.90;1.00
9949;DHT22;5013;51.840;8.276;2023-06-01T15:44:30;17.70;1.00
9949;DHT22;5013;51.840;8.276;2023-06-01T15:46:56;17.80;1.00
9949;DHT22;5013;51.840;8.276;2023-06-01T15:49:22;17.80;1.00
9949;DHT22;5013;51.840;8.276;2023-06-01T15:51:47;17.80;99.90
9949;DHT22;5013;51.840;8.276;2023-06-01T15:54:13;17.60;99.90
9949;DHT22;5013;51.840;8.276;2023-06-01T15:56:38;17.70;99.90
9949;DHT22;5013;51.840;8.276;2023-06-01T15:59:04;17.60;99.90
9949;DHT22;5013;51.840;8.276;2023-06-01T16:01:30;17.50;99.90
9949;DHT22;5013;51.840;8.276;2023-06-01T16:03:55;17.50;99.90
9949;DHT22;5013;51.840;8.276;2023-06-01T16:06:21;17.30;99.90
9949;DHT22;5013;51.840;8.276;2023-06-01T16:08:47;17.60;99.90
9949;DHT22;5013;51.840;8.276;2023-06-01T16:11:12;17.60;99.90
9949;DHT22;5013;51.840;8.276;2023-06-01T16:13:38;17.50;99.90
9949;DHT22;5013;51.840;8.276;2023-06-01T16:16:03;17.30;99.90
9949;DHT22;5013;51.840;8.276;2023-06-01T16:18:29;17.20;99.90
9949;DHT22;5013;51.840;8.276;2023-06-01T16:20:55;17.20;1.00
9949;DHT22;5013;51.840;8.276;2023-06-01T16:23:20;17.20;99.90
9949;DHT22;5013;51.840;8.276;2023-06-01T16:25:46;17.10;99.90
9949;DHT22;5013;51.840;8.276;2023-06-01T16:28:11;17.10;99.90
9949;DHT22;5013;51.840;8.276;2023-06-01T16:30:37;17.10;99.90
9949;DHT22;5013;51.840;8.276;2023-06-01T16:33:02;17.10;99.90
9949;DHT22;5013;51.840;8.276;2023-06-01T16:35:28;17.10;99.90
9949;DHT22;5013;51.840;8.276;2023-06-01T16:37:54;17.00;99.90
9949;DHT22;5013;51.840;8.276;2023-06-01T16:40:20;17.10;1.00
9949;DHT22;5013;51.840;8.276;2023-06-01T16:42:46;16.90;99.90
9949;DHT22;5013;51.840;8.276;2023-06-01T16:45:11;17.00;22.40
9949;DHT22;5013;51.840;8.276;2023-06-01T16:47:37;16.90;19.90
9949;DHT22;5013;51.840;8.276;2023-06-01T16:50:03;16.80;99.90
9949;DHT22;5013;51.840;8.276;2023-06-01T16:52:29;16.80;99.90
9949;DHT22;5013;51.840;8.276;2023-06-01T16:54:56;16.90;1.00
9949;DHT22;5013;51.840;8.276;2023-06-01T16:57:22;16.90;1.00
9949;DHT22;5013;51.840;8.276;2023-06-01T16:59:50;16.80;1.00